sensor_id;sensor_type;location;lat;lon;timestamp;P1;durP1;ratioP1;P2;durP2;ratioP2
58360;SDS011;44164;44.954;10.068;2022-10-30T00:00:30;6.97;;;4.15;;
58360;SDS011;44164;44.954;10.068;2022-10-30T00:02:56;6.13;;;4.55;;
58360;SDS011;44164;44.954;10.068;2022-10-30T00:05:22;8.38;;;4.97;;
58360;SDS011;44164;44.954;10.068;2022-10-30T00:07:49;6.75;;;4.47;;
58360;SDS011;44164;44.954;10.068;2022-10-30T00:10:16;7.38;;;5.25;;
58360;SDS011;44164;44.954;10.068;2022-10-30T00:12:42;8.80;;;4.70;;
58360;SDS011;44164;44.954;10.068;2022-10-30T00:15:09;10.25;;;5.13;;
58360;SDS011;44164;44.954;10.068;2022-10-30T00:17:35;7.40;;;4.68;;
58360;SDS011;44164;44.954;10.068;2022-10-30T00:20:02;7.45;;;4.85;;
58360;SDS011;44164;44.954;10.068;2022-10-30T00:22:29;8.82;;;4.45;;
58360;SDS011;44164;44.954;10.068;2022-10-30T00:24:55;7.80;;;4.70;;
58360;SDS011;44164;44.954;10.068;2022-10-30T00:27:21;5.80;;;4.53;;
58360;SDS011;44164;44.954;10.068;2022-10-30T00:29:47;7.68;;;5.35;;
58360;SDS011;44164;44.954;10.068;2022-10-30T00:32:13;7.70;;;4.72;;
58360;SDS011;44164;44.954;10.068;2022-10-30T00:34:39;7.55;;;4.43;;
58360;SDS011;44164;44.954;10.068;2022-10-30T00:37:07;8.80;;;4.72;;
58360;SDS011;44164;44.954;10.068;2022-10-30T00:39:34;7.85;;;4.05;;
58360;SDS011;44164;44.954;10.068;2022-10-30T00:42:01;8.20;;;4.78;;
58360;SDS011;44164;44.954;10.068;2022-10-30T00:44:34;6.20;;;4.55;;
58360;SDS011;44164;44.954;10.068;2022-10-30T00:47:12;6.90;;;4.72;;
58360;SDS011;44164;44.954;10.068;2022-10-30T00:52:32;6.63;;;4.10;;
58360;SDS011;44164;44.954;10.068;2022-10-30T00:55:14;6.20;;;4.40;;
58360;SDS011;44164;44.954;10.068;2022-10-30T00:57:43;5.85;;;4.40;;
58360;SDS011;44164;44.954;10.068;2022-10-30T01:00:09;6.13;;;4.22;;
58360;SDS011;44164;44.954;10.068;2022-10-30T01:02:36;6.70;;;3.83;;
58360;SDS011;44164;44.954;10.068;2022-10-30T01:05:04;7.30;;;4.25;;
58360;SDS011;44164;44.954;10.068;2022-10-30T01:07:30;4.97;;;3.70;;
58360;SDS011;44164;44.954;10.068;2022-10-30T01:09:56;4.82;;;4.03;;
58360;SDS011;44164;44.954;10.068;2022-10-30T01:12:23;5.25;;;4.10;;
58360;SDS011;44164;44.954;10.068;2022-10-30T01:14:51;7.05;;;4.50;;
58360;SDS011;44164;44.954;10.068;2022-10-30T01:20:05;7.68;;;4.20;;
58360;SDS011;44164;44.954;10.068;2022-10-30T01:28:39;6.70;;;3.75;;
58360;SDS011;44164;44.954;10.068;2022-10-30T01:33:54;5.82;;;4.40;;
58360;SDS011;44164;44.954;10.068;2022-10-30T01:36:37;6.22;;;4.80;;
58360;SDS011;44164;44.954;10.068;2022-10-30T01:39:16;7.35;;;4.15;;
58360;SDS011;44164;44.954;10.068;2022-10-30T01:41:45;5.47;;;4.45;;
58360;SDS011;44164;44.954;10.068;2022-10-30T01:44:13;7.68;;;4.40;;
58360;SDS011;44164;44.954;10.068;2022-10-30T01:55:04;5.78;;;3.75;;
58360;SDS011;44164;44.954;10.068;2022-10-30T01:57:36;7.07;;;4.20;;
58360;SDS011;44164;44.954;10.068;2022-10-30T02:00:09;7.13;;;4.22;;
58360;SDS011;44164;44.954;10.068;2022-10-30T02:02:45;8.17;;;4.73;;
58360;SDS011;44164;44.954;10.068;2022-10-30T02:07:41;5.75;;;4.10;;
58360;SDS011;44164;44.954;10.068;2022-10-30T02:10:09;6.35;;;4.28;;
58360;SDS011;44164;44.954;10.068;2022-10-30T02:12:37;6.45;;;4.00;;
58360;SDS011;44164;44.954;10.068;2022-10-30T02:15:03;7.07;;;4.22;;
58360;SDS011;44164;44.954;10.068;2022-10-30T02:17:30;6.25;;;4.28;;
58360;SDS011;44164;44.954;10.068;2022-10-30T02:19:56;5.60;;;4.43;;
58360;SDS011;44164;44.954;10.068;2022-10-30T02:22:22;7.40;;;4.45;;
58360;SDS011;44164;44.954;10.068;2022-10-30T02:24:49;4.85;;;3.42;;
58360;SDS011;44164;44.954;10.068;2022-10-30T02:27:19;6.68;;;3.80;;
58360;SDS011;44164;44.954;10.068;2022-10-30T02:29:45;10.68;;;4.20;;
58360;SDS011;44164;44.954;10.068;2022-10-30T02:32:11;6.05;;;4.10;;
58360;SDS011;44164;44.954;10.068;2022-10-30T02:34:38;7.93;;;4.18;;
58360;SDS011;44164;44.954;10.068;2022-10-30T02:37:04;7.72;;;4.22;;
58360;SDS011;44164;44.954;10.068;2022-10-30T02:39:30;6.05;;;4.03;;
58360;SDS011;44164;44.954;10.068;2022-10-30T02:41:56;6.97;;;3.92;;
58360;SDS011;44164;44.954;10.068;2022-10-30T02:44:22;4.68;;;3.60;;
58360;SDS011;44164;44.954;10.068;2022-10-30T02:46:48;5.85;;;3.92;;
58360;SDS011;44164;44.954;10.068;2022-10-30T02:49:15;4.35;;;3.40;;
58360;SDS011;44164;44.954;10.068;2022-10-30T02:51:41;6.63;;;3.70;;
58360;SDS011;44164;44.954;10.068;2022-10-30T02:54:07;5.18;;;3.83;;
58360;SDS011;44164;44.954;10.068;2022-10-30T02:56:34;6.30;;;4.25;;
58360;SDS011;44164;44.954;10.068;2022-10-30T02:59:00;4.28;;;3.25;;
58360;SDS011;44164;44.954;10.068;2022-10-30T03:01:27;7.30;;;4.30;;
58360;SDS011;44164;44.954;10.068;2022-10-30T03:03:55;4.97;;;3.58;;
58360;SDS011;44164;44.954;10.068;2022-10-30T03:06:22;5.78;;;3.45;;
58360;SDS011;44164;44.954;10.068;2022-10-30T03:08:49;7.68;;;4.13;;
58360;SDS011;44164;44.954;10.068;2022-10-30T03:11:17;4.78;;;3.47;;
58360;SDS011;44164;44.954;10.068;2022-10-30T03:13:46;5.68;;;3.50;;
58360;SDS011;44164;44.954;10.068;2022-10-30T03:16:13;5.65;;;3.88;;
58360;SDS011;44164;44.954;10.068;2022-10-30T03:18:41;5.47;;;3.60;;
58360;SDS011;44164;44.954;10.068;2022-10-30T03:21:10;4.63;;;3.40;;
58360;SDS011;44164;44.954;10.068;2022-10-30T03:23:38;5.50;;;3.35;;
58360;SDS011;44164;44.954;10.068;2022-10-30T03:26:05;6.13;;;3.65;;
58360;SDS011;44164;44.954;10.068;2022-10-30T03:28:36;5.68;;;3.53;;
58360;SDS011;44164;44.954;10.068;2022-10-30T03:31:04;5.35;;;3.50;;
58360;SDS011;44164;44.954;10.068;2022-10-30T03:33:32;4.82;;;3.30;;
58360;SDS011;44164;44.954;10.068;2022-10-30T03:35:59;5.35;;;3.40;;
58360;SDS011;44164;44.954;10.068;2022-10-30T03:38:25;5.65;;;3.33;;
58360;SDS011;44164;44.954;10.068;2022-10-30T03:40:52;6.50;;;3.63;;
58360;SDS011;44164;44.954;10.068;2022-10-30T03:43:18;4.60;;;2.90;;
58360;SDS011;44164;44.954;10.068;2022-10-30T03:45:49;5.78;;;3.38;;
58360;SDS011;44164;44.954;10.068;2022-10-30T03:48:18;4.63;;;3.38;;
58360;SDS011;44164;44.954;10.068;2022-10-30T03:50:45;5.63;;;3.35;;
58360;SDS011;44164;44.954;10.068;2022-10-30T03:53:12;5.53;;;3.53;;
58360;SDS011;44164;44.954;10.068;2022-10-30T03:55:39;4.10;;;3.00;;
58360;SDS011;44164;44.954;10.068;2022-10-30T03:58:05;4.55;;;3.35;;
58360;SDS011;44164;44.954;10.068;2022-10-30T04:00:32;4.38;;;3.10;;
58360;SDS011;44164;44.954;10.068;2022-10-30T04:02:59;4.07;;;3.10;;
58360;SDS011;44164;44.954;10.068;2022-10-30T04:05:27;5.28;;;4.00;;
58360;SDS011;44164;44.954;10.068;2022-10-30T04:07:56;3.95;;;3.08;;
58360;SDS011;44164;44.954;10.068;2022-10-30T04:10:23;5.20;;;3.47;;
58360;SDS011;44164;44.954;10.068;2022-10-30T04:12:51;5.82;;;3.15;;
58360;SDS011;44164;44.954;10.068;2022-10-30T04:15:19;5.88;;;3.50;;
58360;SDS011;44164;44.954;10.068;2022-10-30T04:17:49;4.13;;;3.58;;
58360;SDS011;44164;44.954;10.068;2022-10-30T04:20:16;5.68;;;3.50;;
58360;SDS011;44164;44.954;10.068;2022-10-30T04:22:43;5.93;;;3.78;;
58360;SDS011;44164;44.954;10.068;2022-10-30T04:25:12;4.78;;;3.03;;
58360;SDS011;44164;44.954;10.068;2022-10-30T04:27:41;4.35;;;3.03;;
58360;SDS011;44164;44.954;10.068;2022-10-30T04:30:09;4.45;;;3.00;;
58360;SDS011;44164;44.954;10.068;2022-10-30T04:32:44;6.32;;;3.38;;
58360;SDS011;44164;44.954;10.068;2022-10-30T04:35:14;6.63;;;3.10;;
58360;SDS011;44164;44.954;10.068;2022-10-30T04:37:42;7.20;;;3.10;;
58360;SDS011;44164;44.954;10.068;2022-10-30T04:40:08;6.28;;;2.72;;
58360;SDS011;44164;44.954;10.068;2022-10-30T04:42:46;4.80;;;3.35;;
58360;SDS011;44164;44.954;10.068;2022-10-30T04:45:14;4.50;;;3.10;;
58360;SDS011;44164;44.954;10.068;2022-10-30T04:50:08;5.07;;;3.22;;
58360;SDS011;44164;44.954;10.068;2022-10-30T04:52:34;4.32;;;3.10;;
58360;SDS011;44164;44.954;10.068;2022-10-30T04:55:01;5.50;;;3.10;;
58360;SDS011;44164;44.954;10.068;2022-10-30T04:57:27;6.47;;;3.17;;
58360;SDS011;44164;44.954;10.068;2022-10-30T04:59:53;3.97;;;3.03;;
58360;SDS011;44164;44.954;10.068;2022-10-30T05:02:20;3.58;;;2.58;;
58360;SDS011;44164;44.954;10.068;2022-10-30T05:04:46;5.30;;;3.15;;
58360;SDS011;44164;44.954;10.068;2022-10-30T05:07:12;4.65;;;3.03;;
58360;SDS011;44164;44.954;10.068;2022-10-30T05:09:38;4.65;;;3.28;;
58360;SDS011;44164;44.954;10.068;2022-10-30T05:12:04;5.00;;;2.97;;
58360;SDS011;44164;44.954;10.068;2022-10-30T05:14:37;4.43;;;3.15;;
58360;SDS011;44164;44.954;10.068;2022-10-30T05:17:04;4.53;;;2.63;;
58360;SDS011;44164;44.954;10.068;2022-10-30T05:19:32;3.03;;;2.50;;
58360;SDS011;44164;44.954;10.068;2022-10-30T05:21:58;4.18;;;2.80;;
58360;SDS011;44164;44.954;10.068;2022-10-30T05:24:24;6.20;;;2.78;;
58360;SDS011;44164;44.954;10.068;2022-10-30T05:26:50;4.45;;;3.08;;
58360;SDS011;44164;44.954;10.068;2022-10-30T05:29:17;5.40;;;2.90;;
58360;SDS011;44164;44.954;10.068;2022-10-30T05:31:43;3.65;;;2.60;;
58360;SDS011;44164;44.954;10.068;2022-10-30T05:34:15;4.00;;;2.85;;
58360;SDS011;44164;44.954;10.068;2022-10-30T05:39:12;6.05;;;3.20;;
58360;SDS011;44164;44.954;10.068;2022-10-30T05:41:42;4.65;;;3.15;;
58360;SDS011;44164;44.954;10.068;2022-10-30T05:44:08;5.47;;;3.08;;
58360;SDS011;44164;44.954;10.068;2022-10-30T05:46:38;4.85;;;3.75;;
58360;SDS011;44164;44.954;10.068;2022-10-30T05:49:26;3.58;;;2.60;;
58360;SDS011;44164;44.954;10.068;2022-10-30T05:51:52;4.40;;;3.30;;
58360;SDS011;44164;44.954;10.068;2022-10-30T05:54:18;4.20;;;2.85;;
58360;SDS011;44164;44.954;10.068;2022-10-30T05:57:07;6.75;;;3.08;;
58360;SDS011;44164;44.954;10.068;2022-10-30T05:59:36;5.03;;;2.95;;
58360;SDS011;44164;44.954;10.068;2022-10-30T06:02:02;4.25;;;3.03;;
58360;SDS011;44164;44.954;10.068;2022-10-30T06:04:28;3.65;;;2.92;;
58360;SDS011;44164;44.954;10.068;2022-10-30T06:06:55;4.57;;;3.50;;
58360;SDS011;44164;44.954;10.068;2022-10-30T06:09:21;5.30;;;3.00;;
58360;SDS011;44164;44.954;10.068;2022-10-30T06:11:58;3.92;;;2.53;;
58360;SDS011;44164;44.954;10.068;2022-10-30T06:14:41;7.53;;;3.17;;
58360;SDS011;44164;44.954;10.068;2022-10-30T06:17:08;4.85;;;2.78;;
58360;SDS011;44164;44.954;10.068;2022-10-30T06:19:56;7.03;;;3.20;;
58360;SDS011;44164;44.954;10.068;2022-10-30T06:22:55;3.97;;;2.97;;
58360;SDS011;44164;44.954;10.068;2022-10-30T06:25:26;3.40;;;2.35;;
58360;SDS011;44164;44.954;10.068;2022-10-30T06:28:05;5.13;;;2.88;;
58360;SDS011;44164;44.954;10.068;2022-10-30T06:30:31;5.65;;;2.92;;
58360;SDS011;44164;44.954;10.068;2022-10-30T06:32:59;3.85;;;2.35;;
58360;SDS011;44164;44.954;10.068;2022-10-30T06:35:27;5.85;;;2.78;;
58360;SDS011;44164;44.954;10.068;2022-10-30T06:37:54;4.45;;;3.20;;
58360;SDS011;44164;44.954;10.068;2022-10-30T06:40:23;5.38;;;3.10;;
58360;SDS011;44164;44.954;10.068;2022-10-30T06:43:18;4.18;;;2.70;;
58360;SDS011;44164;44.954;10.068;2022-10-30T06:45:51;4.78;;;2.78;;
58360;SDS011;44164;44.954;10.068;2022-10-30T06:48:17;4.47;;;2.65;;
58360;SDS011;44164;44.954;10.068;2022-10-30T06:50:54;4.00;;;2.60;;
58360;SDS011;44164;44.954;10.068;2022-10-30T06:53:22;3.13;;;2.45;;
58360;SDS011;44164;44.954;10.068;2022-10-30T06:56:02;3.50;;;2.13;;
58360;SDS011;44164;44.954;10.068;2022-10-30T06:58:50;4.75;;;3.20;;
58360;SDS011;44164;44.954;10.068;2022-10-30T07:01:54;4.30;;;2.83;;
58360;SDS011;44164;44.954;10.068;2022-10-30T07:04:24;3.30;;;2.45;;
58360;SDS011;44164;44.954;10.068;2022-10-30T07:06:50;3.17;;;2.50;;
58360;SDS011;44164;44.954;10.068;2022-10-30T07:09:19;3.47;;;2.25;;
58360;SDS011;44164;44.954;10.068;2022-10-30T07:11:45;4.18;;;2.97;;
58360;SDS011;44164;44.954;10.068;2022-10-30T07:14:19;4.85;;;3.05;;
58360;SDS011;44164;44.954;10.068;2022-10-30T07:16:54;4.28;;;2.58;;
58360;SDS011;44164;44.954;10.068;2022-10-30T07:19:20;5.32;;;2.60;;
58360;SDS011;44164;44.954;10.068;2022-10-30T07:21:47;3.47;;;2.78;;
58360;SDS011;44164;44.954;10.068;2022-10-30T07:24:13;4.40;;;2.88;;
58360;SDS011;44164;44.954;10.068;2022-10-30T07:26:49;2.78;;;2.17;;
58360;SDS011;44164;44.954;10.068;2022-10-30T07:29:35;3.78;;;2.88;;
58360;SDS011;44164;44.954;10.068;2022-10-30T07:32:30;4.15;;;2.65;;
58360;SDS011;44164;44.954;10.068;2022-10-30T07:35:09;5.82;;;2.90;;
58360;SDS011;44164;44.954;10.068;2022-10-30T07:37:52;4.30;;;2.92;;
58360;SDS011;44164;44.954;10.068;2022-10-30T07:40:19;3.53;;;2.30;;
58360;SDS011;44164;44.954;10.068;2022-10-30T07:42:59;5.53;;;3.00;;
58360;SDS011;44164;44.954;10.068;2022-10-30T07:45:37;3.85;;;2.58;;
58360;SDS011;44164;44.954;10.068;2022-10-30T07:48:31;5.47;;;3.00;;
58360;SDS011;44164;44.954;10.068;2022-10-30T07:51:20;4.25;;;2.78;;
58360;SDS011;44164;44.954;10.068;2022-10-30T07:53:48;5.00;;;3.15;;
58360;SDS011;44164;44.954;10.068;2022-10-30T07:56:14;3.95;;;2.83;;
58360;SDS011;44164;44.954;10.068;2022-10-30T08:01:18;3.95;;;2.42;;
58360;SDS011;44164;44.954;10.068;2022-10-30T08:03:45;3.80;;;2.22;;
58360;SDS011;44164;44.954;10.068;2022-10-30T08:06:21;4.47;;;2.40;;
58360;SDS011;44164;44.954;10.068;2022-10-30T08:08:50;3.33;;;2.50;;
58360;SDS011;44164;44.954;10.068;2022-10-30T08:11:24;3.63;;;2.30;;
58360;SDS011;44164;44.954;10.068;2022-10-30T08:13:52;4.15;;;2.40;;
58360;SDS011;44164;44.954;10.068;2022-10-30T08:16:18;4.18;;;3.03;;
58360;SDS011;44164;44.954;10.068;2022-10-30T08:18:44;3.72;;;2.40;;
58360;SDS011;44164;44.954;10.068;2022-10-30T08:21:10;3.55;;;2.70;;
58360;SDS011;44164;44.954;10.068;2022-10-30T08:23:45;3.58;;;2.63;;
58360;SDS011;44164;44.954;10.068;2022-10-30T08:26:14;6.00;;;2.80;;
58360;SDS011;44164;44.954;10.068;2022-10-30T08:28:40;2.90;;;2.30;;
58360;SDS011;44164;44.954;10.068;2022-10-30T08:31:09;2.80;;;2.20;;
58360;SDS011;44164;44.954;10.068;2022-10-30T08:34:01;4.03;;;2.60;;
58360;SDS011;44164;44.954;10.068;2022-10-30T08:36:37;2.95;;;2.15;;
58360;SDS011;44164;44.954;10.068;2022-10-30T08:39:04;3.95;;;2.55;;
58360;SDS011;44164;44.954;10.068;2022-10-30T08:41:53;3.33;;;2.47;;
58360;SDS011;44164;44.954;10.068;2022-10-30T08:44:21;3.22;;;2.38;;
58360;SDS011;44164;44.954;10.068;2022-10-30T08:47:05;3.13;;;2.25;;
58360;SDS011;44164;44.954;10.068;2022-10-30T08:49:31;3.60;;;2.63;;
58360;SDS011;44164;44.954;10.068;2022-10-30T08:51:59;3.53;;;2.50;;
58360;SDS011;44164;44.954;10.068;2022-10-30T08:54:25;3.78;;;2.65;;
58360;SDS011;44164;44.954;10.068;2022-10-30T08:56:53;3.15;;;2.35;;
58360;SDS011;44164;44.954;10.068;2022-10-30T08:59:19;4.57;;;2.70;;
58360;SDS011;44164;44.954;10.068;2022-10-30T09:01:45;3.83;;;2.42;;
58360;SDS011;44164;44.954;10.068;2022-10-30T09:04:18;4.03;;;2.38;;
58360;SDS011;44164;44.954;10.068;2022-10-30T09:07:16;2.85;;;2.08;;
58360;SDS011;44164;44.954;10.068;2022-10-30T09:09:51;4.95;;;2.50;;
58360;SDS011;44164;44.954;10.068;2022-10-30T09:12:18;5.25;;;2.95;;
58360;SDS011;44164;44.954;10.068;2022-10-30T09:14:45;3.58;;;2.67;;
58360;SDS011;44164;44.954;10.068;2022-10-30T09:17:11;3.33;;;2.38;;
58360;SDS011;44164;44.954;10.068;2022-10-30T09:19:40;4.43;;;2.45;;
58360;SDS011;44164;44.954;10.068;2022-10-30T09:22:07;3.20;;;2.20;;
58360;SDS011;44164;44.954;10.068;2022-10-30T09:24:38;3.53;;;2.58;;
58360;SDS011;44164;44.954;10.068;2022-10-30T09:27:27;3.28;;;2.72;;
58360;SDS011;44164;44.954;10.068;2022-10-30T09:32:24;2.83;;;1.77;;
58360;SDS011;44164;44.954;10.068;2022-10-30T09:35:07;4.15;;;2.22;;
58360;SDS011;44164;44.954;10.068;2022-10-30T09:37:38;3.88;;;2.50;;
58360;SDS011;44164;44.954;10.068;2022-10-30T09:40:09;2.70;;;2.03;;
58360;SDS011;44164;44.954;10.068;2022-10-30T09:42:45;3.08;;;2.13;;
58360;SDS011;44164;44.954;10.068;2022-10-30T09:53:43;4.03;;;2.40;;
58360;SDS011;44164;44.954;10.068;2022-10-30T09:56:26;3.70;;;2.33;;
58360;SDS011;44164;44.954;10.068;2022-10-30T10:01:39;2.90;;;2.15;;
58360;SDS011;44164;44.954;10.068;2022-10-30T10:04:25;2.95;;;1.98;;
58360;SDS011;44164;44.954;10.068;2022-10-30T10:07:03;3.83;;;2.50;;
58360;SDS011;44164;44.954;10.068;2022-10-30T10:09:43;3.58;;;2.10;;
58360;SDS011;44164;44.954;10.068;2022-10-30T10:12:32;2.92;;;2.00;;
58360;SDS011;44164;44.954;10.068;2022-10-30T10:14:59;4.00;;;2.40;;
58360;SDS011;44164;44.954;10.068;2022-10-30T10:17:30;2.80;;;2.10;;
58360;SDS011;44164;44.954;10.068;2022-10-30T10:19:59;3.38;;;2.33;;
58360;SDS011;44164;44.954;10.068;2022-10-30T10:22:32;2.58;;;2.05;;
58360;SDS011;44164;44.954;10.068;2022-10-30T10:25:05;3.58;;;2.28;;
58360;SDS011;44164;44.954;10.068;2022-10-30T10:35:23;3.35;;;2.13;;
58360;SDS011;44164;44.954;10.068;2022-10-30T10:51:36;3.03;;;1.63;;
58360;SDS011;44164;44.954;10.068;2022-10-30T10:54:24;2.60;;;2.03;;
58360;SDS011;44164;44.954;10.068;2022-10-30T10:59:31;2.60;;;1.90;;
58360;SDS011;44164;44.954;10.068;2022-10-30T11:02:12;3.00;;;2.20;;
58360;SDS011;44164;44.954;10.068;2022-10-30T11:04:45;2.90;;;1.98;;
58360;SDS011;44164;44.954;10.068;2022-10-30T11:07:18;4.72;;;2.30;;
58360;SDS011;44164;44.954;10.068;2022-10-30T11:09:48;2.67;;;1.73;;
58360;SDS011;44164;44.954;10.068;2022-10-30T11:12:18;2.78;;;2.25;;
58360;SDS011;44164;44.954;10.068;2022-10-30T11:14:45;2.97;;;1.92;;
58360;SDS011;44164;44.954;10.068;2022-10-30T11:17:14;2.38;;;1.83;;
58360;SDS011;44164;44.954;10.068;2022-10-30T11:19:44;4.43;;;2.08;;
58360;SDS011;44164;44.954;10.068;2022-10-30T11:22:20;3.78;;;2.15;;
58360;SDS011;44164;44.954;10.068;2022-10-30T11:24:49;2.40;;;1.92;;
58360;SDS011;44164;44.954;10.068;2022-10-30T11:27:27;2.58;;;1.70;;
58360;SDS011;44164;44.954;10.068;2022-10-30T11:32:25;3.25;;;1.90;;
58360;SDS011;44164;44.954;10.068;2022-10-30T11:34:59;2.90;;;1.90;;
58360;SDS011;44164;44.954;10.068;2022-10-30T11:37:28;2.90;;;1.80;;
58360;SDS011;44164;44.954;10.068;2022-10-30T11:40:30;2.45;;;1.90;;
58360;SDS011;44164;44.954;10.068;2022-10-30T11:45:25;2.88;;;2.05;;
58360;SDS011;44164;44.954;10.068;2022-10-30T11:48:09;2.67;;;1.98;;
58360;SDS011;44164;44.954;10.068;2022-10-30T11:50:38;2.83;;;2.10;;
58360;SDS011;44164;44.954;10.068;2022-10-30T11:53:11;3.22;;;2.30;;
58360;SDS011;44164;44.954;10.068;2022-10-30T11:55:45;2.55;;;1.80;;
58360;SDS011;44164;44.954;10.068;2022-10-30T11:58:25;3.13;;;2.10;;
58360;SDS011;44164;44.954;10.068;2022-10-30T12:03:39;2.85;;;1.90;;
58360;SDS011;44164;44.954;10.068;2022-10-30T12:06:07;2.63;;;1.70;;
58360;SDS011;44164;44.954;10.068;2022-10-30T12:08:35;2.83;;;2.10;;
58360;SDS011;44164;44.954;10.068;2022-10-30T12:11:02;3.47;;;2.05;;
58360;SDS011;44164;44.954;10.068;2022-10-30T12:18:33;2.58;;;1.90;;
58360;SDS011;44164;44.954;10.068;2022-10-30T12:20:59;2.63;;;1.88;;
58360;SDS011;44164;44.954;10.068;2022-10-30T12:23:27;2.28;;;1.70;;
58360;SDS011;44164;44.954;10.068;2022-10-30T12:25:55;2.40;;;1.73;;
58360;SDS011;44164;44.954;10.068;2022-10-30T12:28:27;2.85;;;2.00;;
58360;SDS011;44164;44.954;10.068;2022-10-30T12:33:44;2.50;;;1.75;;
58360;SDS011;44164;44.954;10.068;2022-10-30T12:36:21;2.25;;;1.55;;
58360;SDS011;44164;44.954;10.068;2022-10-30T12:38:51;3.33;;;1.90;;
58360;SDS011;44164;44.954;10.068;2022-10-30T12:44:15;2.45;;;1.50;;
58360;SDS011;44164;44.954;10.068;2022-10-30T12:46:50;3.38;;;1.88;;
58360;SDS011;44164;44.954;10.068;2022-10-30T12:49:39;2.10;;;1.58;;
58360;SDS011;44164;44.954;10.068;2022-10-30T12:57:32;3.47;;;1.95;;
58360;SDS011;44164;44.954;10.068;2022-10-30T13:03:00;2.63;;;1.77;;
58360;SDS011;44164;44.954;10.068;2022-10-30T13:11:27;3.03;;;1.75;;
58360;SDS011;44164;44.954;10.068;2022-10-30T13:13:57;2.65;;;1.50;;
58360;SDS011;44164;44.954;10.068;2022-10-30T13:16:27;2.35;;;1.60;;
58360;SDS011;44164;44.954;10.068;2022-10-30T13:18:55;2.88;;;2.13;;
58360;SDS011;44164;44.954;10.068;2022-10-30T13:21:24;3.33;;;1.98;;
58360;SDS011;44164;44.954;10.068;2022-10-30T13:24:10;3.33;;;1.88;;
58360;SDS011;44164;44.954;10.068;2022-10-30T13:29:14;2.60;;;1.73;;
58360;SDS011;44164;44.954;10.068;2022-10-30T13:37:55;3.83;;;2.50;;
58360;SDS011;44164;44.954;10.068;2022-10-30T13:40:35;3.65;;;2.13;;
58360;SDS011;44164;44.954;10.068;2022-10-30T13:45:58;3.72;;;2.42;;
58360;SDS011;44164;44.954;10.068;2022-10-30T13:51:34;3.42;;;2.25;;
58360;SDS011;44164;44.954;10.068;2022-10-30T13:54:02;4.05;;;2.35;;
58360;SDS011;44164;44.954;10.068;2022-10-30T13:56:32;3.08;;;2.38;;
58360;SDS011;44164;44.954;10.068;2022-10-30T14:04:39;6.45;;;2.33;;
58360;SDS011;44164;44.954;10.068;2022-10-30T14:07:21;3.88;;;2.08;;
58360;SDS011;44164;44.954;10.068;2022-10-30T14:18:24;4.18;;;2.30;;
58360;SDS011;44164;44.954;10.068;2022-10-30T14:20:48;10.43;;;2.58;;
58360;SDS011;44164;44.954;10.068;2022-10-30T14:28:41;2.63;;;1.77;;
58360;SDS011;44164;44.954;10.068;2022-10-30T14:36:11;4.78;;;2.63;;
58360;SDS011;44164;44.954;10.068;2022-10-30T14:38:58;3.22;;;2.17;;
58360;SDS011;44164;44.954;10.068;2022-10-30T14:47:14;6.90;;;2.25;;
58360;SDS011;44164;44.954;10.068;2022-10-30T15:11:07;4.07;;;2.00;;
58360;SDS011;44164;44.954;10.068;2022-10-30T15:16:53;3.35;;;2.13;;
58360;SDS011;44164;44.954;10.068;2022-10-30T15:19:19;3.30;;;2.28;;
58360;SDS011;44164;44.954;10.068;2022-10-30T15:21:53;3.47;;;1.92;;
58360;SDS011;44164;44.954;10.068;2022-10-30T15:24:21;3.70;;;1.90;;
58360;SDS011;44164;44.954;10.068;2022-10-30T15:26:57;3.72;;;1.95;;
58360;SDS011;44164;44.954;10.068;2022-10-30T15:29:25;3.30;;;2.03;;
58360;SDS011;44164;44.954;10.068;2022-10-30T15:31:58;3.45;;;2.35;;
58360;SDS011;44164;44.954;10.068;2022-10-30T15:35:00;2.33;;;1.80;;
58360;SDS011;44164;44.954;10.068;2022-10-30T15:37:28;3.90;;;2.55;;
58360;SDS011;44164;44.954;10.068;2022-10-30T15:42:39;3.03;;;1.80;;
58360;SDS011;44164;44.954;10.068;2022-10-30T15:45:20;4.30;;;2.20;;
58360;SDS011;44164;44.954;10.068;2022-10-30T15:48:07;3.83;;;2.35;;
58360;SDS011;44164;44.954;10.068;2022-10-30T15:50:43;6.10;;;2.42;;
58360;SDS011;44164;44.954;10.068;2022-10-30T15:53:15;4.70;;;2.10;;
58360;SDS011;44164;44.954;10.068;2022-10-30T15:55:43;3.40;;;2.00;;
58360;SDS011;44164;44.954;10.068;2022-10-30T15:58:10;4.05;;;2.15;;
58360;SDS011;44164;44.954;10.068;2022-10-30T16:00:40;4.05;;;2.45;;
58360;SDS011;44164;44.954;10.068;2022-10-30T16:03:16;4.20;;;2.40;;
58360;SDS011;44164;44.954;10.068;2022-10-30T16:05:42;4.95;;;2.25;;
58360;SDS011;44164;44.954;10.068;2022-10-30T16:08:11;3.20;;;2.35;;
58360;SDS011;44164;44.954;10.068;2022-10-30T16:10:40;3.58;;;2.03;;
58360;SDS011;44164;44.954;10.068;2022-10-30T16:13:18;4.63;;;2.55;;
58360;SDS011;44164;44.954;10.068;2022-10-30T16:20:59;5.63;;;2.55;;
58360;SDS011;44164;44.954;10.068;2022-10-30T16:23:28;7.10;;;2.80;;
58360;SDS011;44164;44.954;10.068;2022-10-30T16:25:55;3.85;;;2.20;;
58360;SDS011;44164;44.954;10.068;2022-10-30T16:28:25;5.10;;;3.10;;
58360;SDS011;44164;44.954;10.068;2022-10-30T16:30:52;5.88;;;2.65;;
58360;SDS011;44164;44.954;10.068;2022-10-30T16:33:21;8.63;;;2.50;;
58360;SDS011;44164;44.954;10.068;2022-10-30T16:35:50;5.45;;;2.20;;
58360;SDS011;44164;44.954;10.068;2022-10-30T16:38:17;5.05;;;2.50;;
58360;SDS011;44164;44.954;10.068;2022-10-30T16:40:44;5.65;;;2.65;;
58360;SDS011;44164;44.954;10.068;2022-10-30T16:43:32;4.93;;;2.35;;
58360;SDS011;44164;44.954;10.068;2022-10-30T16:49:07;10.13;;;2.90;;
58360;SDS011;44164;44.954;10.068;2022-10-30T16:51:39;10.40;;;3.22;;
58360;SDS011;44164;44.954;10.068;2022-10-30T16:54:12;5.47;;;3.15;;
58360;SDS011;44164;44.954;10.068;2022-10-30T16:56:43;5.20;;;2.50;;
58360;SDS011;44164;44.954;10.068;2022-10-30T16:59:13;4.70;;;3.10;;
58360;SDS011;44164;44.954;10.068;2022-10-30T17:01:41;7.22;;;2.88;;
58360;SDS011;44164;44.954;10.068;2022-10-30T17:04:10;4.93;;;2.65;;
58360;SDS011;44164;44.954;10.068;2022-10-30T17:06:39;11.10;;;2.90;;
58360;SDS011;44164;44.954;10.068;2022-10-30T17:09:07;6.18;;;3.00;;
58360;SDS011;44164;44.954;10.068;2022-10-30T17:11:39;4.15;;;2.53;;
58360;SDS011;44164;44.954;10.068;2022-10-30T17:14:16;5.85;;;3.15;;
58360;SDS011;44164;44.954;10.068;2022-10-30T17:16:54;4.50;;;2.78;;
58360;SDS011;44164;44.954;10.068;2022-10-30T17:21:59;5.03;;;2.55;;
58360;SDS011;44164;44.954;10.068;2022-10-30T17:24:29;5.63;;;2.75;;
58360;SDS011;44164;44.954;10.068;2022-10-30T17:26:58;5.47;;;2.90;;
58360;SDS011;44164;44.954;10.068;2022-10-30T17:32:02;4.95;;;2.92;;
58360;SDS011;44164;44.954;10.068;2022-10-30T17:34:36;6.38;;;3.35;;
58360;SDS011;44164;44.954;10.068;2022-10-30T17:37:02;6.45;;;3.17;;
58360;SDS011;44164;44.954;10.068;2022-10-30T17:39:29;8.90;;;3.95;;
58360;SDS011;44164;44.954;10.068;2022-10-30T17:41:55;8.90;;;4.30;;
58360;SDS011;44164;44.954;10.068;2022-10-30T17:44:22;11.33;;;4.57;;
58360;SDS011;44164;44.954;10.068;2022-10-30T17:46:49;8.20;;;3.42;;
58360;SDS011;44164;44.954;10.068;2022-10-30T17:49:19;15.10;;;5.43;;
58360;SDS011;44164;44.954;10.068;2022-10-30T17:51:48;10.38;;;5.63;;
58360;SDS011;44164;44.954;10.068;2022-10-30T17:54:15;11.95;;;5.47;;
58360;SDS011;44164;44.954;10.068;2022-10-30T17:56:41;16.15;;;6.35;;
58360;SDS011;44164;44.954;10.068;2022-10-30T17:59:07;16.23;;;7.18;;
58360;SDS011;44164;44.954;10.068;2022-10-30T18:01:33;14.68;;;6.35;;
58360;SDS011;44164;44.954;10.068;2022-10-30T18:03:59;14.52;;;6.57;;